Terminal Aerodrome Forecast
Issued by NWS

Home | Current Version | Previous Version | Text Only | Print | Product List | Glossary On
Versions: 1 2 3 4 5 6 7 8 9 10 11 12 13 14 15
356
FTUS41 KGYX 082320
TAFLEB
TAF
KLEB 082320Z 0900/0924 06006KT P6SM OVC027
      TEMPO 0900/0904 1 1/2SM -SN BR OVC015
     FM091200 00000KT P6SM OVC035
     FM091800 02002KT P6SM OVC050=

USA.gov is the U.S. government's official web portal to all federal, state and local government web resources and services.